Time;durP1;ratioP1;P1;durP2;ratioP2;P2;SDS_P1;SDS_P2;PMS_P1;PMS_P2;Temp;Humidity;BMP_temperature;BMP_pressure;BME280_temperature;BME280_humidity;BME280_pressure;Samples;Min_cycle;Max_cycle;Signal;HPM_P1;HPM_P2
2023/04/30 00:00:44;;;;;;;11.32;7.80;;;;;;;;;;5043184;28;20231;-69
2023/04/30 00:03:10;;;;;;;12.25;7.57;;;;;;;;;;5044031;28;20189;-69
2023/04/30 00:05:36;;;;;;;15.98;7.70;;;;;;;;;;5040881;28;20620;-70
2023/04/30 00:08:01;;;;;;;13.55;7.93;;;;;;;;;;5049126;28;20243;-70
2023/04/30 00:10:26;;;;;;;13.27;7.13;;;;;;;;;;5046925;28;20587;-70
2023/04/30 00:12:52;;;;;;;11.95;7.68;;;;;;;;;;5042682;28;20277;-68
2023/04/30 00:15:17;;;;;;;12.30;7.25;;;;;;;;;;5035716;28;20648;-68
2023/04/30 00:17:43;;;;;;;13.32;7.97;;;;;;;;;;5036877;28;20598;-68
2023/04/30 00:20:08;;;;;;;10.38;7.05;;;;;;;;;;5048334;28;20186;-69
2023/04/30 00:22:34;;;;;;;10.48;7.10;;;;;;;;;;5043109;28;20217;-69
2023/04/30 00:24:59;;;;;;;10.80;7.38;;;;;;;;;;5033459;28;20202;-69
2023/04/30 00:27:24;;;;;;;11.50;7.65;;;;;;;;;;5034426;28;20197;-69
2023/04/30 00:29:50;;;;;;;13.10;8.57;;;;;;;;;;5031268;28;20232;-68
2023/04/30 00:32:15;;;;;;;10.88;8.13;;;;;;;;;;5040974;28;20676;-69
2023/04/30 00:34:41;;;;;;;10.27;6.63;;;;;;;;;;5041702;28;20179;-69
2023/04/30 00:37:06;;;;;;;13.82;8.07;;;;;;;;;;5044076;28;20190;-70
2023/04/30 00:39:31;;;;;;;12.75;8.02;;;;;;;;;;5043547;28;20212;-69
2023/04/30 00:41:57;;;;;;;13.27;7.93;;;;;;;;;;5049082;28;20190;-69
2023/04/30 00:44:22;;;;;;;13.70;8.38;;;;;;;;;;5042389;28;20197;-69
2023/04/30 00:46:48;;;;;;;11.90;7.82;;;;;;;;;;5029814;28;20604;-69
2023/04/30 00:49:13;;;;;;;12.30;8.40;;;;;;;;;;5040248;28;20252;-68
2023/04/30 00:51:40;;;;;;;12.38;7.57;;;;;;;;;;5047178;28;20186;-68
2023/04/30 00:54:07;;;;;;;12.13;8.07;;;;;;;;;;5050232;28;20217;-69
2023/04/30 00:56:32;;;;;;;12.07;7.93;;;;;;;;;;5046561;28;20213;-71
2023/04/30 00:58:58;;;;;;;13.75;7.90;;;;;;;;;;5055465;28;20223;-70
2023/04/30 01:01:30;;;;;;;12.68;8.10;;;;;;;;;;5048993;28;20209;-70
2023/04/30 01:03:56;;;;;;;13.73;7.80;;;;;;;;;;5035078;28;20613;-69
2023/04/30 01:06:21;;;;;;;10.38;7.40;;;;;;;;;;5036252;28;20236;-69
2023/04/30 01:08:48;;;;;;;12.05;7.97;;;;;;;;;;5041499;28;20255;-69
2023/04/30 01:11:24;;;;;;;16.27;9.27;;;;;;;;;;5044999;28;20195;-69
2023/04/30 01:14:27;;;;;;;14.63;7.88;;;;;;;;;;5037388;28;20200;-68
2023/04/30 01:17:08;;;;;;;11.18;8.15;;;;;;;;;;5047986;28;20185;-69
2023/04/30 01:19:44;;;;;;;12.73;7.35;;;;;;;;;;5038874;28;20185;-69
2023/04/30 01:22:49;;;;;;;12.88;7.65;;;;;;;;;;5029561;28;20273;-69
2023/04/30 01:25:23;;;;;;;11.05;7.60;;;;;;;;;;5034583;28;20222;-68
2023/04/30 01:28:04;;;;;;;14.40;8.50;;;;;;;;;;5040561;28;20499;-68
2023/04/30 01:30:33;;;;;;;13.57;7.95;;;;;;;;;;5047116;28;20257;-68
2023/04/30 01:32:59;;;;;;;12.43;7.95;;;;;;;;;;5047722;28;20193;-68
2023/04/30 01:35:38;;;;;;;14.75;8.65;;;;;;;;;;5037566;28;20201;-69
2023/04/30 01:38:36;;;;;;;13.55;8.35;;;;;;;;;;5034863;28;20189;-69
2023/04/30 01:41:43;;;;;;;14.13;8.45;;;;;;;;;;5048598;28;20668;-68
2023/04/30 01:44:27;;;;;;;12.95;7.88;;;;;;;;;;5045484;28;20205;-68
2023/04/30 01:47:01;;;;;;;12.77;7.95;;;;;;;;;;5044630;28;20195;-69
2023/04/30 01:49:33;;;;;;;13.50;8.50;;;;;;;;;;5047852;28;20209;-69
2023/04/30 01:52:21;;;;;;;12.07;8.38;;;;;;;;;;5048568;28;20208;-68
2023/04/30 01:55:17;;;;;;;12.50;8.23;;;;;;;;;;5033581;28;20275;-69
2023/04/30 01:57:57;;;;;;;14.80;8.47;;;;;;;;;;5039110;28;20552;-69
2023/04/30 02:00:23;;;;;;;15.18;8.52;;;;;;;;;;5031530;28;20584;-69
2023/04/30 02:02:49;;;;;;;14.40;8.90;;;;;;;;;;5046641;28;20231;-68
2023/04/30 02:05:14;;;;;;;12.32;8.90;;;;;;;;;;5038114;28;20193;-69
2023/04/30 02:07:42;;;;;;;14.90;8.87;;;;;;;;;;5029572;28;20190;-69
2023/04/30 02:10:09;;;;;;;13.48;8.43;;;;;;;;;;5038452;28;20209;-69
2023/04/30 02:12:34;;;;;;;11.98;7.80;;;;;;;;;;5046957;28;20313;-69
2023/04/30 02:15:00;;;;;;;13.90;8.25;;;;;;;;;;5047963;28;20393;-69
2023/04/30 02:17:26;;;;;;;13.80;8.10;;;;;;;;;;5037729;28;20235;-69
2023/04/30 02:19:51;;;;;;;14.73;7.87;;;;;;;;;;5037283;28;20193;-69
2023/04/30 02:22:17;;;;;;;13.32;8.50;;;;;;;;;;5034031;28;20276;-69
2023/04/30 02:24:42;;;;;;;12.40;7.97;;;;;;;;;;5032755;28;20272;-69
2023/04/30 02:27:07;;;;;;;11.48;7.93;;;;;;;;;;5039093;28;20198;-70
2023/04/30 02:29:33;;;;;;;12.63;8.27;;;;;;;;;;5027756;28;20228;-69
2023/04/30 02:31:58;;;;;;;13.83;8.37;;;;;;;;;;5054343;28;20225;-70
2023/04/30 02:34:24;;;;;;;11.15;7.35;;;;;;;;;;5047517;28;20681;-69
2023/04/30 02:36:49;;;;;;;13.63;8.18;;;;;;;;;;5041490;28;20250;-69
2023/04/30 02:39:14;;;;;;;12.50;8.32;;;;;;;;;;5040050;28;20679;-68
2023/04/30 02:41:40;;;;;;;13.33;7.87;;;;;;;;;;5047095;28;20280;-68
2023/04/30 02:44:05;;;;;;;12.40;8.13;;;;;;;;;;5033352;28;20193;-69
2023/04/30 02:46:31;;;;;;;15.77;8.23;;;;;;;;;;5047393;28;20233;-69
2023/04/30 02:48:56;;;;;;;12.87;8.07;;;;;;;;;;5034850;28;20190;-69
2023/04/30 02:51:21;;;;;;;11.68;7.60;;;;;;;;;;5042186;28;20196;-69
2023/04/30 02:53:47;;;;;;;12.18;7.30;;;;;;;;;;5040227;28;20270;-69
2023/04/30 02:56:12;;;;;;;12.03;7.47;;;;;;;;;;5040445;28;20200;-70
2023/04/30 02:58:38;;;;;;;10.90;7.53;;;;;;;;;;5045855;28;20718;-69
2023/04/30 03:01:03;;;;;;;10.80;7.50;;;;;;;;;;5044115;28;20248;-69
2023/04/30 03:03:29;;;;;;;9.47;6.90;;;;;;;;;;5038936;28;20201;-69
2023/04/30 03:05:55;;;;;;;12.00;7.03;;;;;;;;;;5040147;28;20669;-69
2023/04/30 03:08:21;;;;;;;14.73;8.10;;;;;;;;;;5043575;28;20181;-69
2023/04/30 03:10:46;;;;;;;12.23;8.43;;;;;;;;;;5038475;28;20217;-69
2023/04/30 03:13:11;;;;;;;12.90;8.60;;;;;;;;;;5047958;28;20205;-69
2023/04/30 03:15:37;;;;;;;14.93;8.70;;;;;;;;;;5040864;28;20646;-69
2023/04/30 03:18:03;;;;;;;12.00;8.20;;;;;;;;;;5035162;28;20213;-69
2023/04/30 03:20:28;;;;;;;12.67;8.03;;;;;;;;;;5040414;28;20225;-69
2023/04/30 03:22:53;;;;;;;14.00;8.00;;;;;;;;;;5048157;28;20262;-70
2023/04/30 03:25:19;;;;;;;18.03;9.40;;;;;;;;;;5044894;28;20323;-69
2023/04/30 03:27:44;;;;;;;15.43;8.77;;;;;;;;;;5037782;28;20209;-69
2023/04/30 03:30:10;;;;;;;16.43;8.53;;;;;;;;;;5047131;28;20227;-69
2023/04/30 03:32:35;;;;;;;16.97;8.97;;;;;;;;;;5048393;28;20193;-70
2023/04/30 03:35:00;;;;;;;15.13;9.37;;;;;;;;;;5048478;28;20251;-69
2023/04/30 03:37:26;;;;;;;13.43;8.27;;;;;;;;;;5050416;28;20270;-69
2023/04/30 03:39:51;;;;;;;14.70;8.60;;;;;;;;;;5047042;28;20189;-69
2023/04/30 03:42:16;;;;;;;14.03;8.87;;;;;;;;;;5045326;28;20661;-69
2023/04/30 03:44:42;;;;;;;18.33;8.23;;;;;;;;;;5040935;28;20246;-70
2023/04/30 03:47:07;;;;;;;14.83;8.03;;;;;;;;;;5037095;28;20194;-69
2023/04/30 03:49:33;;;;;;;12.90;7.60;;;;;;;;;;5039848;28;20794;-69
2023/04/30 03:51:58;;;;;;;12.87;6.90;;;;;;;;;;5053139;28;20267;-69
2023/04/30 03:54:23;;;;;;;12.47;7.33;;;;;;;;;;5059386;28;20219;-70
2023/04/30 03:56:49;;;;;;;13.20;8.47;;;;;;;;;;5053478;28;20201;-69
2023/04/30 03:59:14;;;;;;;14.27;8.13;;;;;;;;;;5058380;28;20275;-69
2023/04/30 04:01:40;;;;;;;12.93;8.97;;;;;;;;;;5064989;28;20262;-68
2023/04/30 04:04:06;;;;;;;17.00;9.67;;;;;;;;;;5049944;28;20284;-68
2023/04/30 04:06:32;;;;;;;16.63;8.40;;;;;;;;;;5055253;28;20230;-69
2023/04/30 04:08:57;;;;;;;15.73;9.03;;;;;;;;;;5039661;28;20206;-68
2023/04/30 04:11:22;;;;;;;22.40;9.83;;;;;;;;;;5052499;28;20195;-71
2023/04/30 04:13:48;;;;;;;18.23;9.57;;;;;;;;;;5063143;28;20679;-69
2023/04/30 04:16:13;;;;;;;14.70;9.07;;;;;;;;;;5049504;28;20192;-69
2023/04/30 04:18:39;;;;;;;14.50;8.90;;;;;;;;;;5045280;28;20641;-69
2023/04/30 04:21:04;;;;;;;16.50;8.33;;;;;;;;;;5048374;28;20342;-69
2023/04/30 04:23:29;;;;;;;15.07;8.27;;;;;;;;;;5043108;28;20202;-69
2023/04/30 04:25:56;;;;;;;13.57;8.07;;;;;;;;;;5044399;28;20565;-69
2023/04/30 04:28:21;;;;;;;12.10;7.80;;;;;;;;;;5046650;28;20201;-69
2023/04/30 04:30:48;;;;;;;12.57;8.87;;;;;;;;;;5037621;28;20217;-70
2023/04/30 04:33:13;;;;;;;16.17;9.30;;;;;;;;;;5046253;28;20217;-67
2023/04/30 04:35:38;;;;;;;15.73;9.03;;;;;;;;;;5042780;28;20224;-68
2023/04/30 04:38:04;;;;;;;17.83;9.87;;;;;;;;;;5046126;28;20522;-70
2023/04/30 04:40:29;;;;;;;18.40;11.03;;;;;;;;;;5042419;28;20285;-69
2023/04/30 04:42:55;;;;;;;19.70;9.27;;;;;;;;;;5047232;28;20526;-68
2023/04/30 04:45:20;;;;;;;13.40;8.60;;;;;;;;;;5044610;28;20234;-68
2023/04/30 04:47:47;;;;;;;13.83;9.57;;;;;;;;;;5048625;28;20209;-69
2023/04/30 04:50:13;;;;;;;17.63;9.93;;;;;;;;;;5044372;28;20213;-69
2023/04/30 04:52:38;;;;;;;19.57;10.03;;;;;;;;;;5035264;28;20194;-69
2023/04/30 04:55:04;;;;;;;15.67;9.50;;;;;;;;;;5046996;28;20208;-69
2023/04/30 04:57:30;;;;;;;14.50;8.87;;;;;;;;;;5042259;28;20264;-69
2023/04/30 04:59:55;;;;;;;13.30;9.47;;;;;;;;;;5049422;28;20185;-69
2023/04/30 05:02:22;;;;;;;17.30;10.03;;;;;;;;;;5041674;28;20286;-69
2023/04/30 05:04:49;;;;;;;24.20;10.93;;;;;;;;;;5042812;28;20657;-69
2023/04/30 05:07:15;;;;;;;21.10;11.90;;;;;;;;;;5031090;28;20245;-69
2023/04/30 05:09:41;;;;;;;19.87;12.67;;;;;;;;;;5035035;28;20222;-69
2023/04/30 05:12:06;;;;;;;20.67;11.83;;;;;;;;;;5046693;28;20189;-69
2023/04/30 05:14:31;;;;;;;18.43;11.33;;;;;;;;;;5041081;28;20197;-69
2023/04/30 05:16:57;;;;;;;17.83;12.10;;;;;;;;;;5044286;28;20189;-69
2023/04/30 05:19:22;;;;;;;19.13;11.30;;;;;;;;;;5048478;28;20220;-69
2023/04/30 05:21:47;;;;;;;22.03;12.47;;;;;;;;;;5045202;28;20578;-69
2023/04/30 05:24:13;;;;;;;28.73;13.83;;;;;;;;;;5048368;28;20220;-69
2023/04/30 05:26:38;;;;;;;24.00;13.87;;;;;;;;;;5045859;28;20210;-70
2023/04/30 05:29:03;;;;;;;24.80;14.17;;;;;;;;;;5045734;28;20208;-70
2023/04/30 05:31:31;;;;;;;24.63;14.50;;;;;;;;;;5037124;28;20626;-69
2023/04/30 05:33:56;;;;;;;28.87;14.03;;;;;;;;;;5046183;28;20192;-70
2023/04/30 05:36:21;;;;;;;21.20;14.27;;;;;;;;;;5034634;28;20288;-70
2023/04/30 05:38:47;;;;;;;27.67;14.40;;;;;;;;;;5040577;28;20194;-70
2023/04/30 05:41:12;;;;;;;27.80;14.53;;;;;;;;;;5041603;28;20205;-70
2023/04/30 05:43:37;;;;;;;30.23;16.07;;;;;;;;;;5047874;28;20197;-71
2023/04/30 05:46:03;;;;;;;28.27;15.83;;;;;;;;;;5039023;28;20252;-70
2023/04/30 05:48:29;;;;;;;24.73;14.53;;;;;;;;;;5040206;28;20211;-70
2023/04/30 05:50:54;;;;;;;27.07;13.20;;;;;;;;;;5033113;28;20681;-69
2023/04/30 05:53:20;;;;;;;25.43;13.53;;;;;;;;;;5031726;28;20197;-68
2023/04/30 05:55:45;;;;;;;25.70;13.37;;;;;;;;;;5029581;28;20269;-69
2023/04/30 05:58:10;;;;;;;29.53;12.43;;;;;;;;;;5031882;28;20190;-69
2023/04/30 06:00:36;;;;;;;21.23;12.17;;;;;;;;;;5031609;28;20217;-69
2023/04/30 06:03:02;;;;;;;23.93;11.90;;;;;;;;;;5044096;28;20606;-69
2023/04/30 06:05:27;;;;;;;23.97;11.90;;;;;;;;;;5041539;28;20289;-70
2023/04/30 06:07:52;;;;;;;22.57;11.23;;;;;;;;;;5035481;28;20645;-70
2023/04/30 06:10:18;;;;;;;17.83;10.83;;;;;;;;;;5034723;28;20256;-69
2023/04/30 06:12:43;;;;;;;25.10;10.60;;;;;;;;;;5036165;28;20205;-71
2023/04/30 06:15:09;;;;;;;21.40;10.27;;;;;;;;;;5036523;28;20284;-69
2023/04/30 06:17:34;;;;;;;21.52;10.13;;;;;;;;;;5044438;28;20676;-69
2023/04/30 06:20:03;;;;;;;21.60;8.45;;;;;;;;;;5036337;28;20570;-69
2023/04/30 06:22:29;;;;;;;15.90;9.02;;;;;;;;;;5033897;28;20189;-69
2023/04/30 06:24:56;;;;;;;21.48;8.38;;;;;;;;;;5040430;28;20346;-69
2023/04/30 06:27:22;;;;;;;21.55;8.40;;;;;;;;;;5044209;28;20193;-70
2023/04/30 06:29:47;;;;;;;13.05;7.65;;;;;;;;;;5044902;28;20266;-69
2023/04/30 06:32:13;;;;;;;15.32;8.25;;;;;;;;;;5042753;28;20269;-70
2023/04/30 06:34:38;;;;;;;12.23;5.75;;;;;;;;;;5037829;28;20657;-70
2023/04/30 06:37:03;;;;;;;13.77;5.07;;;;;;;;;;5045461;28;20194;-69
2023/04/30 06:39:29;;;;;;;11.15;5.00;;;;;;;;;;5038320;28;20218;-69
2023/04/30 06:41:54;;;;;;;15.38;4.60;;;;;;;;;;5043896;28;20658;-70
2023/04/30 06:44:20;;;;;;;14.07;4.43;;;;;;;;;;5041150;28;20265;-69
2023/04/30 06:46:45;;;;;;;11.20;4.63;;;;;;;;;;5030668;28;20228;-69
2023/04/30 06:49:11;;;;;;;15.90;4.30;;;;;;;;;;5030671;28;20218;-71
2023/04/30 06:51:36;;;;;;;11.15;4.00;;;;;;;;;;5039901;28;20199;-68
2023/04/30 06:54:01;;;;;;;8.10;3.75;;;;;;;;;;5039069;28;20201;-68
2023/04/30 06:56:27;;;;;;;11.25;4.25;;;;;;;;;;5046119;28;20254;-68
2023/04/30 06:58:52;;;;;;;14.90;4.72;;;;;;;;;;5044209;28;20286;-69
2023/04/30 07:01:17;;;;;;;14.70;4.78;;;;;;;;;;5037661;28;20214;-68
2023/04/30 07:03:43;;;;;;;12.95;4.32;;;;;;;;;;5039120;28;20197;-68
2023/04/30 07:06:09;;;;;;;10.63;4.95;;;;;;;;;;5043900;28;20186;-68
2023/04/30 07:08:34;;;;;;;13.77;5.15;;;;;;;;;;5052808;28;20539;-68
2023/04/30 07:10:59;;;;;;;14.40;5.07;;;;;;;;;;5036828;28;20323;-70
2023/04/30 07:13:25;;;;;;;10.98;5.45;;;;;;;;;;5046403;28;20250;-69
2023/04/30 07:15:51;;;;;;;12.15;5.22;;;;;;;;;;5042238;28;20272;-68
2023/04/30 07:18:16;;;;;;;14.02;5.50;;;;;;;;;;5033897;28;20190;-68
2023/04/30 07:20:42;;;;;;;10.45;5.20;;;;;;;;;;5031388;28;20200;-68
2023/04/30 07:23:07;;;;;;;9.93;5.28;;;;;;;;;;5030930;28;20205;-69
2023/04/30 07:25:33;;;;;;;12.25;5.32;;;;;;;;;;5043866;28;20653;-69
2023/04/30 07:27:59;;;;;;;11.70;4.88;;;;;;;;;;5045288;28;20194;-69
2023/04/30 07:30:25;;;;;;;8.70;4.55;;;;;;;;;;5043773;28;20232;-69
2023/04/30 07:32:50;;;;;;;12.10;4.60;;;;;;;;;;5043128;28;20243;-69
2023/04/30 07:35:15;;;;;;;10.73;4.50;;;;;;;;;;5029190;28;20194;-69
2023/04/30 07:37:42;;;;;;;10.15;4.63;;;;;;;;;;5039427;28;20190;-68
2023/04/30 07:40:11;;;;;;;8.75;4.25;;;;;;;;;;5042207;28;20186;-68
2023/04/30 07:42:46;;;;;;;8.65;4.13;;;;;;;;;;5042408;28;20324;-70
2023/04/30 07:45:12;;;;;;;13.25;4.30;;;;;;;;;;5038252;28;20704;-69
2023/04/30 07:47:37;;;;;;;9.63;3.85;;;;;;;;;;5044442;28;20192;-69
2023/04/30 07:50:03;;;;;;;13.52;4.28;;;;;;;;;;5044222;28;20205;-69
2023/04/30 07:52:29;;;;;;;10.23;3.63;;;;;;;;;;5032036;28;20187;-69
2023/04/30 07:54:54;;;;;;;9.07;3.20;;;;;;;;;;5041395;28;20197;-69
2023/04/30 07:57:19;;;;;;;9.02;3.17;;;;;;;;;;5040987;28;20217;-69
2023/04/30 07:59:45;;;;;;;11.65;3.63;;;;;;;;;;5040240;28;20202;-69
2023/04/30 08:02:10;;;;;;;10.20;4.25;;;;;;;;;;5031765;28;20340;-69
2023/04/30 08:04:36;;;;;;;11.95;4.45;;;;;;;;;;5038906;28;20666;-70
2023/04/30 08:07:03;;;;;;;7.85;3.90;;;;;;;;;;5035000;28;20196;-69
2023/04/30 08:09:28;;;;;;;9.43;3.83;;;;;;;;;;5050738;28;20293;-69
2023/04/30 08:11:54;;;;;;;10.85;4.60;;;;;;;;;;5039179;28;20213;-68
2023/04/30 08:14:20;;;;;;;11.23;4.25;;;;;;;;;;5035252;28;20283;-68
2023/04/30 08:16:45;;;;;;;10.20;4.03;;;;;;;;;;5037892;28;20275;-68
2023/04/30 08:19:11;;;;;;;9.57;3.60;;;;;;;;;;5041215;28;20197;-69
2023/04/30 08:21:37;;;;;;;10.45;4.15;;;;;;;;;;5048393;28;20282;-68
2023/04/30 08:24:02;;;;;;;10.32;3.83;;;;;;;;;;5045267;28;20541;-68
2023/04/30 08:26:28;;;;;;;11.25;3.72;;;;;;;;;;5034032;28;20343;-68
2023/04/30 08:28:53;;;;;;;12.30;3.88;;;;;;;;;;5031293;28;20182;-70
2023/04/30 08:31:19;;;;;;;10.05;3.60;;;;;;;;;;5041627;28;20213;-69
2023/04/30 08:33:44;;;;;;;9.65;3.85;;;;;;;;;;5046599;28;20189;-68
2023/04/30 08:36:10;;;;;;;9.85;3.72;;;;;;;;;;5040594;28;20280;-69
2023/04/30 08:38:35;;;;;;;9.30;3.47;;;;;;;;;;5029461;28;20190;-69
2023/04/30 08:41:08;;;;;;;9.75;2.83;;;;;;;;;;5033965;28;20309;-68
2023/04/30 08:43:37;;;;;;;9.18;3.72;;;;;;;;;;5042164;28;20217;-69
2023/04/30 08:46:04;;;;;;;10.75;3.88;;;;;;;;;;5041175;28;20257;-68
2023/04/30 08:48:30;;;;;;;6.95;3.10;;;;;;;;;;5033933;28;20229;-68
2023/04/30 08:50:59;;;;;;;9.18;3.30;;;;;;;;;;5032237;28;20210;-68
2023/04/30 08:53:25;;;;;;;7.97;3.45;;;;;;;;;;5035926;28;20209;-69
2023/04/30 08:55:50;;;;;;;9.23;3.88;;;;;;;;;;5048916;28;20661;-69
2023/04/30 08:58:16;;;;;;;15.50;3.90;;;;;;;;;;5041718;28;20193;-68
2023/04/30 09:00:41;;;;;;;8.45;3.67;;;;;;;;;;5046054;28;20237;-69
2023/04/30 09:03:07;;;;;;;9.57;3.67;;;;;;;;;;5047731;28;20216;-69
2023/04/30 09:05:32;;;;;;;8.32;3.50;;;;;;;;;;5058330;28;20204;-68
2023/04/30 09:07:58;;;;;;;11.18;3.97;;;;;;;;;;5048830;28;20413;-69
2023/04/30 09:10:23;;;;;;;16.80;4.70;;;;;;;;;;5048264;28;20839;-69
2023/04/30 09:13:00;;;;;;;8.77;3.65;;;;;;;;;;5035180;28;20277;-69
2023/04/30 09:15:25;;;;;;;9.13;4.00;;;;;;;;;;5042998;28;20177;-69
2023/04/30 09:18:16;;;;;;;11.60;4.53;;;;;;;;;;5050929;28;20193;-68
2023/04/30 09:21:01;;;;;;;9.35;3.88;;;;;;;;;;5040759;28;20181;-69
2023/04/30 09:23:27;;;;;;;12.15;4.25;;;;;;;;;;5044989;28;20189;-69
2023/04/30 09:25:53;;;;;;;8.82;4.07;;;;;;;;;;5048605;28;20212;-69
2023/04/30 09:28:24;;;;;;;8.93;3.95;;;;;;;;;;5056528;28;20202;-68
2023/04/30 09:30:49;;;;;;;10.27;3.72;;;;;;;;;;5048590;28;20550;-68
2023/04/30 09:33:15;;;;;;;8.88;3.75;;;;;;;;;;5055104;28;20188;-69
2023/04/30 09:35:41;;;;;;;8.25;3.58;;;;;;;;;;5043155;28;20196;-69
2023/04/30 09:38:07;;;;;;;9.88;4.38;;;;;;;;;;5061055;28;20276;-69
2023/04/30 09:40:40;;;;;;;10.18;3.80;;;;;;;;;;5056759;28;20186;-68
2023/04/30 09:43:06;;;;;;;7.00;3.58;;;;;;;;;;5043167;28;20509;-69
2023/04/30 09:45:48;;;;;;;8.88;3.58;;;;;;;;;;5038558;28;20209;-68
2023/04/30 09:48:14;;;;;;;9.15;3.83;;;;;;;;;;5044023;28;20655;-68
2023/04/30 09:50:40;;;;;;;9.77;3.40;;;;;;;;;;5036648;28;20222;-69
2023/04/30 09:53:13;;;;;;;7.35;3.10;;;;;;;;;;5040303;28;20267;-69
2023/04/30 09:55:42;;;;;;;7.97;3.20;;;;;;;;;;5045368;28;20179;-69
2023/04/30 09:58:09;;;;;;;7.35;3.45;;;;;;;;;;5044145;28;20280;-69
2023/04/30 10:00:36;;;;;;;10.90;3.72;;;;;;;;;;5040952;28;20196;-69
2023/04/30 10:03:07;;;;;;;8.07;3.28;;;;;;;;;;5037638;28;20292;-68
2023/04/30 10:05:47;;;;;;;7.32;3.30;;;;;;;;;;5033352;28;20186;-69
2023/04/30 10:08:18;;;;;;;7.75;3.05;;;;;;;;;;5029823;28;20576;-69
2023/04/30 10:10:48;;;;;;;7.03;3.45;;;;;;;;;;5041662;28;20213;-68
2023/04/30 10:13:18;;;;;;;6.63;3.22;;;;;;;;;;5043786;28;20189;-69
2023/04/30 10:15:51;;;;;;;9.95;3.95;;;;;;;;;;5032764;28;20221;-69
2023/04/30 10:18:21;;;;;;;3.60;2.60;;;;;;;;;;5042847;28;20193;-68
2023/04/30 10:20:51;;;;;;;4.78;2.83;;;;;;;;;;5045616;28;20185;-68
2023/04/30 10:23:17;;;;;;;10.98;3.25;;;;;;;;;;5042019;28;20190;-69
2023/04/30 10:25:43;;;;;;;7.72;2.85;;;;;;;;;;5049144;28;20243;-69
2023/04/30 10:28:09;;;;;;;5.25;2.97;;;;;;;;;;5042385;28;20344;-69
2023/04/30 10:30:35;;;;;;;9.68;3.42;;;;;;;;;;5046978;28;20644;-69
2023/04/30 10:33:12;;;;;;;6.63;3.30;;;;;;;;;;5042731;28;20204;-68
2023/04/30 10:35:45;;;;;;;5.00;2.47;;;;;;;;;;5040481;28;20272;-69
2023/04/30 10:38:21;;;;;;;4.78;2.33;;;;;;;;;;5039142;28;20554;-70
2023/04/30 10:40:46;;;;;;;5.10;2.42;;;;;;;;;;5036577;28;20463;-70
2023/04/30 10:43:12;;;;;;;6.00;2.67;;;;;;;;;;5033790;28;20688;-70
2023/04/30 10:45:42;;;;;;;6.40;3.00;;;;;;;;;;5043539;28;20335;-70
2023/04/30 10:48:08;;;;;;;7.40;3.03;;;;;;;;;;5026385;28;20565;-68
2023/04/30 10:50:41;;;;;;;4.05;2.30;;;;;;;;;;5031699;28;20209;-68
2023/04/30 10:53:06;;;;;;;6.82;2.67;;;;;;;;;;5047139;28;20228;-68
2023/04/30 10:55:32;;;;;;;8.93;2.80;;;;;;;;;;5030603;28;20217;-68
2023/04/30 10:57:58;;;;;;;8.05;2.75;;;;;;;;;;5041545;28;20190;-67
2023/04/30 11:00:25;;;;;;;5.60;2.50;;;;;;;;;;5031596;28;20302;-66
2023/04/30 11:02:56;;;;;;;6.18;2.95;;;;;;;;;;5026302;28;20210;-67
2023/04/30 11:05:33;;;;;;;5.55;2.72;;;;;;;;;;5037133;28;20251;-68
2023/04/30 11:08:00;;;;;;;7.07;2.80;;;;;;;;;;5034052;28;20223;-67
2023/04/30 11:10:27;;;;;;;7.40;2.85;;;;;;;;;;5036013;28;20204;-69
2023/04/30 11:12:54;;;;;;;8.10;2.30;;;;;;;;;;5039505;28;20658;-69
2023/04/30 11:15:24;;;;;;;8.68;2.97;;;;;;;;;;5030459;28;20512;-69
2023/04/30 11:17:50;;;;;;;5.40;2.70;;;;;;;;;;5030106;28;20239;-68
2023/04/30 11:20:21;;;;;;;3.72;2.10;;;;;;;;;;5038912;28;20201;-70
2023/04/30 11:22:47;;;;;;;7.35;2.72;;;;;;;;;;5027906;28;20194;-70
2023/04/30 11:25:17;;;;;;;4.05;2.10;;;;;;;;;;5040625;28;20694;-69
2023/04/30 11:27:43;;;;;;;5.18;2.20;;;;;;;;;;4334427;28;10000829;-69
2023/04/30 11:30:17;;;;;;;6.35;2.95;;;;;;;;;;5038191;28;20687;-68
2023/04/30 11:32:46;;;;;;;5.53;2.10;;;;;;;;;;5033894;28;20198;-69
2023/04/30 11:35:12;;;;;;;5.70;2.40;;;;;;;;;;5032047;28;20214;-69
2023/04/30 11:37:40;;;;;;;4.93;2.13;;;;;;;;;;5043647;28;20190;-70
2023/04/30 11:40:07;;;;;;;5.07;2.10;;;;;;;;;;5041772;28;20194;-70
2023/04/30 11:42:33;;;;;;;3.97;2.20;;;;;;;;;;5043051;28;20274;-71
2023/04/30 11:45:22;;;;;;;6.88;2.25;;;;;;;;;;5045529;28;20233;-69
2023/04/30 11:47:49;;;;;;;3.75;1.63;;;;;;;;;;5041751;28;20199;-69
2023/04/30 11:50:25;;;;;;;7.57;1.45;;;;;;;;;;5046180;28;20228;-69
2023/04/30 11:52:52;;;;;;;7.65;1.98;;;;;;;;;;5045410;28;20199;-68
2023/04/30 11:55:22;;;;;;;4.45;1.92;;;;;;;;;;5042116;28;20875;-69
2023/04/30 11:57:56;;;;;;;4.05;1.92;;;;;;;;;;5029200;28;20228;-68
2023/04/30 12:00:29;;;;;;;4.70;1.98;;;;;;;;;;5042492;28;20693;-69
2023/04/30 12:02:55;;;;;;;7.22;2.20;;;;;;;;;;5044174;28;20189;-69
2023/04/30 12:05:23;;;;;;;6.78;2.17;;;;;;;;;;5040454;28;20209;-69
2023/04/30 12:07:56;;;;;;;5.07;2.28;;;;;;;;;;5035771;28;20574;-70
2023/04/30 12:10:22;;;;;;;4.57;2.10;;;;;;;;;;5037973;28;20556;-69
2023/04/30 12:12:50;;;;;;;4.90;1.80;;;;;;;;;;5039794;28;20216;-71
2023/04/30 12:15:25;;;;;;;4.28;2.10;;;;;;;;;;5042855;28;20185;-69
2023/04/30 12:17:50;;;;;;;4.93;2.33;;;;;;;;;;5044952;28;20200;-69
2023/04/30 12:20:17;;;;;;;6.00;2.30;;;;;;;;;;5045432;28;20204;-69
2023/04/30 12:22:43;;;;;;;4.65;2.85;;;;;;;;;;5050247;28;20600;-69
2023/04/30 12:25:14;;;;;;;6.18;2.13;;;;;;;;;;5038792;28;20528;-70
2023/04/30 12:27:51;;;;;;;9.48;2.63;;;;;;;;;;5037581;28;20190;-69
2023/04/30 12:30:24;;;;;;;9.02;2.55;;;;;;;;;;5041420;28;20198;-70
2023/04/30 12:32:51;;;;;;;4.97;1.83;;;;;;;;;;5048811;28;20209;-71
2023/04/30 12:35:19;;;;;;;4.50;1.70;;;;;;;;;;5043314;28;20228;-68
2023/04/30 12:37:50;;;;;;;3.78;1.75;;;;;;;;;;5043285;28;20284;-69
2023/04/30 12:40:17;;;;;;;4.80;1.75;;;;;;;;;;5044487;28;20178;-69
2023/04/30 12:42:44;;;;;;;4.72;1.60;;;;;;;;;;5039949;28;20193;-69
2023/04/30 12:45:10;;;;;;;5.85;1.88;;;;;;;;;;5034479;28;20222;-69
2023/04/30 12:47:40;;;;;;;4.97;1.52;;;;;;;;;;5040475;28;20641;-68
2023/04/30 12:50:11;;;;;;;6.03;2.08;;;;;;;;;;5037572;28;20236;-69
2023/04/30 12:52:39;;;;;;;4.53;1.65;;;;;;;;;;5031803;28;20281;-69
2023/04/30 12:55:19;;;;;;;6.45;1.67;;;;;;;;;;5033932;28;20237;-70
2023/04/30 12:58:11;;;;;;;6.38;2.20;;;;;;;;;;5035911;28;20198;-69
2023/04/30 13:00:49;;;;;;;6.97;2.15;;;;;;;;;;5026600;28;20309;-69
2023/04/30 13:03:17;;;;;;;3.70;1.85;;;;;;;;;;5042950;28;20193;-69
2023/04/30 13:05:51;;;;;;;4.68;1.67;;;;;;;;;;5030849;28;20252;-69
2023/04/30 13:08:18;;;;;;;4.72;1.45;;;;;;;;;;5037659;28;20200;-69
2023/04/30 13:10:45;;;;;;;4.80;1.70;;;;;;;;;;5041416;28;20292;-69
2023/04/30 13:13:12;;;;;;;6.38;1.83;;;;;;;;;;5043700;28;20243;-69
2023/04/30 13:15:39;;;;;;;5.60;1.90;;;;;;;;;;5048649;28;20520;-68
2023/04/30 13:18:07;;;;;;;3.60;1.58;;;;;;;;;;5046478;28;20189;-69
2023/04/30 13:20:33;;;;;;;7.53;1.80;;;;;;;;;;5041971;28;20247;-68
2023/04/30 13:22:58;;;;;;;5.13;1.90;;;;;;;;;;5039916;28;20190;-69
2023/04/30 13:25:24;;;;;;;5.82;1.88;;;;;;;;;;5040380;28;20617;-68
2023/04/30 13:27:49;;;;;;;5.53;1.90;;;;;;;;;;5043404;28;20247;-68
2023/04/30 13:30:15;;;;;;;4.63;1.98;;;;;;;;;;5040287;28;20218;-68
2023/04/30 13:32:41;;;;;;;4.93;2.10;;;;;;;;;;5033900;28;20684;-69
2023/04/30 13:35:07;;;;;;;5.30;2.00;;;;;;;;;;5038612;28;20567;-68
2023/04/30 13:37:34;;;;;;;4.18;1.60;;;;;;;;;;5044803;28;20213;-70
2023/04/30 13:40:00;;;;;;;4.80;1.52;;;;;;;;;;5031742;28;20215;-70
2023/04/30 13:42:26;;;;;;;4.20;2.33;;;;;;;;;;5041093;28;20235;-70
2023/04/30 13:44:51;;;;;;;6.70;2.25;;;;;;;;;;5045641;28;20287;-70
2023/04/30 13:47:18;;;;;;;4.70;2.13;;;;;;;;;;5036443;28;20243;-71
2023/04/30 13:49:43;;;;;;;5.55;1.90;;;;;;;;;;5045721;28;20323;-70
2023/04/30 13:52:09;;;;;;;4.05;1.92;;;;;;;;;;5044924;28;20225;-70
2023/04/30 13:54:36;;;;;;;5.40;2.08;;;;;;;;;;5037694;28;20208;-71
2023/04/30 13:57:02;;;;;;;5.68;1.35;;;;;;;;;;5043618;28;20602;-70
2023/04/30 13:59:27;;;;;;;5.68;1.48;;;;;;;;;;5043852;28;21205;-68
2023/04/30 14:01:53;;;;;;;2.92;1.30;;;;;;;;;;5043164;28;20295;-69
2023/04/30 14:04:18;;;;;;;4.80;1.80;;;;;;;;;;5038615;28;20522;-70
2023/04/30 14:06:44;;;;;;;4.15;1.75;;;;;;;;;;5037911;28;20198;-70
2023/04/30 14:09:09;;;;;;;4.75;1.90;;;;;;;;;;5040776;28;20209;-70
2023/04/30 14:11:35;;;;;;;5.63;1.80;;;;;;;;;;5034969;28;20508;-69
2023/04/30 14:14:00;;;;;;;4.43;1.67;;;;;;;;;;5048507;28;20201;-70
2023/04/30 14:16:27;;;;;;;3.38;1.88;;;;;;;;;;5037390;28;20280;-70
2023/04/30 14:18:53;;;;;;;5.90;1.40;;;;;;;;;;5036618;28;20259;-70
2023/04/30 14:21:18;;;;;;;5.30;1.42;;;;;;;;;;5036099;28;20904;-71
2023/04/30 14:23:45;;;;;;;4.47;1.40;;;;;;;;;;5033146;28;20190;-70
2023/04/30 14:26:11;;;;;;;5.50;1.60;;;;;;;;;;5034317;28;20201;-70
2023/04/30 14:28:36;;;;;;;2.83;1.45;;;;;;;;;;5039511;28;20193;-69
2023/04/30 14:31:02;;;;;;;3.90;1.50;;;;;;;;;;5041282;28;20794;-69
2023/04/30 14:33:28;;;;;;;3.80;1.55;;;;;;;;;;5035022;28;20666;-71
2023/04/30 14:35:54;;;;;;;4.80;1.25;;;;;;;;;;5033238;28;20252;-69